createdAt,value
2022-09-13T00:01:18.482Z,2.00
2022-09-13T00:04:04.623Z,1.90
2022-09-13T00:06:50.091Z,1.80
2022-09-13T00:09:37.372Z,2.03
2022-09-13T00:12:22.938Z,1.90
2022-09-13T00:15:09.463Z,2.60
2022-09-13T00:17:54.740Z,1.98
2022-09-13T00:20:40.385Z,2.17
2022-09-13T00:23:25.764Z,1.75
2022-09-13T00:26:21.142Z,1.92
2022-09-13T00:29:06.870Z,2.17
2022-09-13T00:31:52.483Z,2.28
2022-09-13T00:34:37.984Z,2.03
2022-09-13T00:37:23.140Z,2.00
2022-09-13T00:40:08.958Z,2.00
2022-09-13T00:42:54.499Z,2.03
2022-09-13T00:45:40.209Z,1.80
2022-09-13T00:48:25.706Z,1.67
2022-09-13T00:51:11.728Z,2.00
2022-09-13T00:53:59.833Z,2.00
2022-09-13T00:56:50.785Z,2.20
2022-09-13T00:59:53.967Z,2.40
2022-09-13T01:02:49.930Z,2.03
2022-09-13T01:05:42.368Z,2.00
2022-09-13T01:08:32.254Z,2.13
2022-09-13T01:11:29.889Z,2.10
2022-09-13T01:14:17.853Z,2.33
2022-09-13T01:17:03.965Z,2.20
2022-09-13T01:19:49.529Z,2.38
2022-09-13T01:23:06.525Z,2.30
2022-09-13T01:26:12.742Z,2.33
2022-09-13T01:29:09.996Z,2.28
2022-09-13T01:32:18.762Z,3.10
2022-09-13T01:35:32.168Z,2.13
2022-09-13T01:38:58.378Z,2.33
2022-09-13T01:44:57.724Z,1.90
2022-09-13T01:48:05.838Z,2.20
2022-09-13T01:51:06.911Z,2.20
2022-09-13T01:53:59.292Z,2.40
2022-09-13T01:57:12.834Z,2.03
2022-09-13T02:00:12.350Z,2.38
2022-09-13T02:03:19.137Z,2.30
2022-09-13T02:06:12.795Z,2.15
2022-09-13T02:09:03.594Z,2.22
2022-09-13T02:11:54.748Z,2.38
2022-09-13T02:14:43.205Z,2.25
2022-09-13T02:17:36.900Z,2.90
2022-09-13T02:20:31.594Z,2.47
2022-09-13T02:23:31.409Z,2.20
2022-09-13T02:26:20.326Z,2.08
2022-09-13T02:29:11.740Z,2.10
2022-09-13T02:32:03.614Z,2.97
2022-09-13T02:34:54.199Z,2.38
2022-09-13T02:37:41.767Z,2.20
2022-09-13T02:40:32.151Z,2.28
2022-09-13T02:43:25.071Z,2.22
2022-09-13T02:46:40.026Z,2.33
2022-09-13T02:49:31.682Z,2.45
2022-09-13T02:52:25.232Z,2.30
2022-09-13T02:55:18.948Z,2.38
2022-09-13T02:58:13.312Z,2.30
2022-09-13T03:00:58.581Z,2.30
2022-09-13T03:03:44.775Z,2.00
2022-09-13T03:06:31.012Z,3.22
2022-09-13T03:09:17.898Z,2.33
2022-09-13T03:12:24.335Z,2.42
2022-09-13T03:15:29.548Z,2.60
2022-09-13T03:18:25.683Z,2.17
2022-09-13T03:21:32.950Z,2.38
2022-09-13T03:24:35.525Z,2.17
2022-09-13T03:27:52.129Z,2.70
2022-09-13T03:30:40.908Z,2.22
2022-09-13T03:33:44.227Z,2.13
2022-09-13T03:36:40.743Z,2.38
2022-09-13T03:39:39.120Z,2.30
2022-09-13T03:42:40.949Z,2.38
2022-09-13T03:45:29.828Z,2.42
2022-09-13T03:48:16.497Z,2.40
2022-09-13T03:51:02.159Z,2.42
2022-09-13T03:53:56.452Z,2.15
2022-09-13T03:56:42.071Z,2.17
2022-09-13T03:59:27.605Z,2.22
2022-09-13T04:02:13.915Z,2.35
2022-09-13T04:04:59.345Z,2.50
2022-09-13T04:07:44.648Z,2.28
2022-09-13T04:10:31.791Z,2.20
2022-09-13T04:13:17.481Z,2.30
2022-09-13T04:16:05.099Z,2.05
2022-09-13T04:18:50.459Z,2.25
2022-09-13T04:21:36.451Z,2.35
2022-09-13T04:24:26.361Z,2.40
2022-09-13T04:27:12.811Z,2.30
2022-09-13T04:29:57.963Z,2.33
2022-09-13T04:32:44.556Z,2.33
2022-09-13T04:35:29.732Z,2.42
2022-09-13T04:38:15.342Z,2.47
2022-09-13T04:41:00.859Z,2.53
2022-09-13T04:43:50.794Z,2.45
2022-09-13T04:46:36.168Z,2.60
2022-09-13T04:49:22.161Z,2.53
2022-09-13T04:52:07.618Z,2.97
2022-09-13T04:54:53.202Z,2.70
2022-09-13T04:57:38.831Z,2.55
2022-09-13T05:00:26.273Z,2.75
2022-09-13T05:03:11.682Z,2.67
2022-09-13T05:06:07.187Z,2.78
2022-09-13T05:08:55.267Z,2.50
2022-09-13T05:11:40.965Z,2.63
2022-09-13T05:14:26.461Z,2.50
2022-09-13T05:17:11.897Z,2.65
2022-09-13T05:19:57.528Z,2.20
2022-09-13T05:22:42.864Z,2.33
2022-09-13T05:25:28.479Z,2.30
2022-09-13T05:28:13.982Z,2.22
2022-09-13T05:31:02.193Z,2.40
2022-09-13T05:33:52.728Z,2.67
2022-09-13T05:36:38.600Z,2.70
2022-09-13T05:39:33.838Z,2.67
2022-09-13T05:42:25.334Z,2.55
2022-09-13T05:45:11.128Z,2.70
2022-09-13T05:47:56.376Z,2.55
2022-09-13T05:50:58.765Z,2.22
2022-09-13T05:53:47.899Z,2.25
2022-09-13T05:56:33.449Z,2.50
2022-09-13T05:59:18.976Z,2.85
2022-09-13T06:02:05.011Z,2.60
2022-09-13T06:04:50.906Z,2.53
2022-09-13T06:07:36.974Z,2.50
2022-09-13T06:10:22.458Z,2.53
2022-09-13T06:13:08.090Z,2.47
2022-09-13T06:15:55.185Z,2.90
2022-09-13T06:18:40.869Z,2.50
2022-09-13T06:21:29.074Z,3.22
2022-09-13T06:24:14.886Z,3.20
2022-09-13T06:27:00.627Z,3.35
2022-09-13T06:29:46.200Z,2.70
2022-09-13T06:32:31.615Z,3.00
2022-09-13T06:35:17.868Z,2.88
2022-09-13T06:38:03.462Z,2.67
2022-09-13T06:40:48.840Z,2.78
2022-09-13T06:43:34.988Z,3.17
2022-09-13T06:46:24.901Z,3.08
2022-09-13T06:49:11.332Z,2.80
2022-09-13T06:51:56.836Z,3.50
2022-09-13T06:54:42.138Z,2.58
2022-09-13T06:57:30.632Z,2.45
2022-09-13T07:00:15.947Z,2.45
2022-09-13T07:03:01.405Z,2.50
2022-09-13T07:05:46.838Z,2.50
2022-09-13T07:08:32.268Z,2.85
2022-09-13T07:11:19.617Z,2.90
2022-09-13T07:14:06.820Z,2.78
2022-09-13T07:16:52.933Z,3.40
2022-09-13T07:19:38.321Z,2.90
2022-09-13T07:22:27.140Z,2.78
2022-09-13T07:25:13.034Z,2.90
2022-09-13T07:27:58.252Z,2.75
2022-09-13T07:30:43.776Z,2.53
2022-09-13T07:33:29.177Z,2.40
2022-09-13T07:36:14.987Z,2.40
2022-09-13T07:39:01.724Z,2.25
2022-09-13T07:41:47.230Z,2.30
2022-09-13T07:44:32.613Z,2.00
2022-09-13T07:47:18.351Z,2.28
2022-09-13T07:50:03.502Z,2.10
2022-09-13T07:52:49.033Z,2.25
2022-09-13T07:55:34.363Z,2.47
2022-09-13T07:58:20.191Z,2.30
2022-09-13T08:01:08.699Z,2.20
2022-09-13T08:03:59.014Z,2.30
2022-09-13T08:06:45.500Z,2.10
2022-09-13T08:09:31.017Z,2.10
2022-09-13T08:12:16.490Z,2.10
2022-09-13T08:15:02.202Z,1.77
2022-09-13T08:17:47.729Z,2.13
2022-09-13T08:20:37.510Z,2.45
2022-09-13T08:23:22.573Z,1.90
2022-09-13T08:26:09.013Z,1.92
2022-09-13T08:29:02.923Z,1.80
2022-09-13T08:31:48.478Z,1.48
2022-09-13T08:34:33.668Z,1.67
2022-09-13T08:37:19.459Z,1.80
2022-09-13T08:40:05.221Z,1.90
2022-09-13T08:43:07.184Z,1.40
2022-09-13T08:46:10.793Z,1.48
2022-09-13T08:49:01.161Z,1.25
2022-09-13T08:51:49.453Z,1.50
2022-09-13T08:54:34.480Z,1.30
2022-09-13T08:57:32.039Z,1.60
2022-09-13T09:00:41.036Z,1.70
2022-09-13T09:03:45.140Z,1.30
2022-09-13T09:06:30.802Z,1.45
2022-09-13T09:09:19.451Z,1.30
2022-09-13T09:12:15.559Z,1.60
2022-09-13T09:15:04.009Z,1.40
2022-09-13T09:18:01.062Z,1.10
2022-09-13T09:20:48.620Z,1.40
2022-09-13T09:23:48.666Z,1.48
2022-09-13T09:26:34.423Z,1.30
2022-09-13T09:29:33.469Z,1.30
2022-09-13T09:32:50.268Z,1.10
2022-09-13T09:36:07.214Z,1.10
2022-09-13T09:38:52.754Z,1.00
2022-09-13T09:41:38.475Z,1.08
2022-09-13T09:44:27.791Z,0.90
2022-09-13T09:47:20.270Z,1.23
2022-09-13T09:50:14.276Z,1.20
2022-09-13T09:53:14.327Z,0.80
2022-09-13T09:56:05.866Z,0.90
2022-09-13T09:58:53.271Z,0.90
2022-09-13T10:01:40.060Z,0.98
2022-09-13T10:04:26.251Z,0.90
2022-09-13T10:07:29.520Z,0.77
2022-09-13T10:10:34.695Z,1.00
2022-09-13T10:13:21.926Z,0.93
2022-09-13T10:16:26.484Z,0.98
2022-09-13T10:19:26.377Z,1.00
2022-09-13T10:22:13.082Z,0.80
2022-09-13T10:25:24.678Z,0.45
2022-09-13T10:28:19.253Z,0.50
2022-09-13T10:31:12.749Z,0.50
2022-09-13T10:34:07.147Z,0.45
2022-09-13T10:37:19.236Z,0.50
2022-09-13T10:40:17.824Z,0.50
2022-09-13T10:43:07.049Z,0.50
2022-09-13T10:45:53.986Z,0.43
2022-09-13T10:48:55.806Z,0.73
2022-09-13T10:51:41.401Z,0.40
2022-09-13T10:54:26.455Z,0.47
2022-09-13T10:57:34.517Z,0.50
2022-09-13T11:01:13.501Z,0.60
2022-09-13T11:04:26.533Z,0.50
2022-09-13T11:07:23.888Z,0.70
2022-09-13T11:10:31.522Z,0.50
2022-09-13T11:13:52.525Z,0.60
2022-09-13T11:16:53.576Z,0.60
2022-09-13T11:20:05.358Z,0.70
2022-09-13T11:23:15.700Z,0.50
2022-09-13T11:26:24.884Z,0.70
2022-09-13T11:29:15.880Z,0.57
2022-09-13T11:32:43.336Z,0.55
2022-09-13T11:35:53.525Z,0.38
2022-09-13T11:39:13.334Z,0.60
2022-09-13T11:42:28.835Z,0.50
2022-09-13T11:45:36.123Z,0.50
2022-09-13T11:48:44.492Z,0.60
2022-09-13T11:51:49.032Z,0.50
2022-09-13T11:55:02.830Z,0.50
2022-09-13T11:57:53.266Z,0.50
2022-09-13T12:00:44.240Z,0.50
2022-09-13T12:03:45.068Z,0.50
2022-09-13T12:06:42.043Z,0.60
2022-09-13T12:09:55.989Z,0.60
2022-09-13T12:12:42.843Z,0.53
2022-09-13T12:15:41.239Z,0.63
2022-09-13T12:18:46.805Z,0.60
2022-09-13T12:21:37.495Z,0.50
2022-09-13T12:24:42.228Z,0.40
2022-09-13T12:27:39.982Z,0.50
2022-09-13T12:30:34.935Z,0.55
2022-09-13T12:33:21.114Z,0.65
2022-09-13T12:36:39.635Z,0.60
2022-09-13T12:39:48.057Z,0.60
2022-09-13T12:42:55.812Z,0.60
2022-09-13T12:46:23.036Z,0.60
2022-09-13T12:49:38.036Z,0.65
2022-09-13T12:52:36.962Z,0.40
2022-09-13T12:55:48.718Z,0.40
2022-09-13T12:58:43.321Z,0.52
2022-09-13T13:01:31.006Z,0.50
2022-09-13T13:04:18.596Z,0.50
2022-09-13T13:07:06.905Z,0.50
2022-09-13T13:09:54.887Z,0.50
2022-09-13T13:12:40.820Z,0.40
2022-09-13T13:15:26.225Z,0.40
2022-09-13T13:18:32.321Z,0.50
2022-09-13T13:21:37.839Z,0.30
2022-09-13T13:24:22.798Z,0.50
2022-09-13T13:27:34.901Z,0.40
2022-09-13T13:30:40.544Z,0.40
2022-09-13T13:33:28.959Z,0.47
2022-09-13T13:36:33.542Z,0.40
2022-09-13T13:42:35.352Z,0.35
2022-09-13T13:45:26.945Z,0.40
2022-09-13T13:48:17.310Z,0.70
2022-09-13T13:51:14.470Z,0.40
2022-09-13T13:54:21.745Z,0.35
2022-09-13T13:57:34.251Z,0.80
2022-09-13T14:00:22.367Z,0.43
2022-09-13T14:03:32.170Z,0.40
2022-09-13T14:06:49.975Z,0.50
2022-09-13T14:09:57.269Z,0.50
2022-09-13T14:12:46.484Z,0.60
2022-09-13T14:15:46.333Z,0.60
2022-09-13T14:18:43.986Z,0.50
2022-09-13T14:21:30.634Z,0.50
2022-09-13T14:24:18.759Z,0.50
2022-09-13T14:27:09.098Z,0.40
2022-09-13T14:30:01.565Z,0.50
2022-09-13T14:32:50.750Z,0.30
2022-09-13T14:35:41.274Z,0.50
2022-09-13T14:38:33.607Z,0.50
2022-09-13T14:41:21.356Z,0.50
2022-09-13T14:44:28.468Z,0.52
2022-09-13T14:47:32.447Z,0.50
2022-09-13T14:50:31.485Z,0.40
2022-09-13T14:53:22.062Z,0.60
2022-09-13T14:56:32.853Z,0.50
2022-09-13T14:59:50.889Z,0.40
2022-09-13T15:02:38.947Z,0.60
2022-09-13T15:05:28.520Z,0.47
2022-09-13T15:08:32.860Z,0.57
2022-09-13T15:11:37.634Z,0.63
2022-09-13T15:17:20.595Z,0.57
2022-09-13T15:20:12.869Z,0.60
2022-09-13T15:22:58.464Z,0.50
2022-09-13T15:25:56.896Z,0.75
2022-09-13T15:28:44.742Z,0.60
2022-09-13T15:31:32.553Z,0.60
2022-09-13T15:34:17.644Z,0.50
2022-09-13T15:37:12.687Z,0.70
2022-09-13T15:40:18.782Z,0.60
2022-09-13T15:43:04.120Z,0.43
2022-09-13T15:45:49.746Z,0.47
2022-09-13T15:48:36.433Z,0.60
2022-09-13T15:51:23.202Z,1.05
2022-09-13T15:54:18.262Z,0.60
2022-09-13T15:57:13.724Z,0.60
2022-09-13T16:00:04.113Z,0.80
2022-09-13T16:02:52.093Z,1.08
2022-09-13T16:05:37.603Z,0.80
2022-09-13T16:08:23.791Z,0.90
2022-09-13T16:11:08.993Z,0.90
2022-09-13T16:13:54.540Z,0.88
2022-09-13T16:16:40.800Z,0.75
2022-09-13T16:19:25.993Z,0.98
2022-09-13T16:22:12.917Z,0.70
2022-09-13T16:24:58.438Z,0.80
2022-09-13T16:27:44.980Z,1.10
2022-09-13T16:30:31.785Z,0.90
2022-09-13T16:33:16.876Z,0.70
2022-09-13T16:36:02.749Z,0.73
2022-09-13T16:38:47.962Z,0.90
2022-09-13T16:41:33.512Z,0.63
2022-09-13T16:44:18.887Z,0.57
2022-09-13T16:47:04.447Z,0.70
2022-09-13T16:49:50.113Z,0.60
2022-09-13T16:52:36.377Z,0.70
2022-09-13T16:55:21.869Z,0.70
2022-09-13T16:58:07.085Z,0.70
2022-09-13T17:00:52.949Z,0.70
2022-09-13T17:03:39.371Z,0.70
2022-09-13T17:06:26.739Z,0.80
2022-09-13T17:09:11.966Z,0.60
2022-09-13T17:11:57.743Z,0.80
2022-09-13T17:14:45.312Z,0.70
2022-09-13T17:17:36.009Z,0.68
2022-09-13T17:20:21.565Z,0.93
2022-09-13T17:23:07.076Z,1.00
2022-09-13T17:25:52.950Z,0.80
2022-09-13T17:28:38.530Z,0.80
2022-09-13T17:31:23.914Z,1.02
2022-09-13T17:34:10.490Z,0.80
2022-09-13T17:36:57.082Z,0.82
2022-09-13T17:39:42.556Z,0.70
2022-09-13T17:42:28.074Z,0.95
2022-09-13T17:45:13.551Z,2.45
2022-09-13T17:47:59.323Z,1.00
2022-09-13T17:50:44.926Z,0.80
2022-09-13T17:53:31.162Z,0.90
2022-09-13T17:56:21.714Z,1.00
2022-09-13T17:59:11.843Z,1.10
2022-09-13T18:01:59.341Z,0.80
2022-09-13T18:04:44.684Z,0.90
2022-09-13T18:07:30.173Z,0.85
2022-09-13T18:10:38.796Z,0.60
2022-09-13T18:13:22.078Z,0.90
2022-09-13T18:16:17.152Z,1.10
2022-09-13T18:19:05.798Z,0.98
2022-09-13T18:21:51.080Z,0.82
2022-09-13T18:24:36.585Z,1.30
2022-09-13T18:27:22.263Z,1.00
2022-09-13T18:30:08.048Z,1.00
2022-09-13T18:32:54.246Z,1.00
2022-09-13T18:35:39.507Z,0.90
2022-09-13T18:38:25.840Z,1.00
2022-09-13T18:41:16.605Z,0.85
2022-09-13T18:44:02.409Z,0.98
2022-09-13T18:46:47.714Z,0.93
2022-09-13T18:49:34.408Z,1.05
2022-09-13T18:52:20.021Z,1.08
2022-09-13T18:55:05.914Z,0.90
2022-09-13T18:57:52.929Z,1.08
2022-09-13T19:00:38.830Z,0.98
2022-09-13T19:03:24.278Z,1.05
2022-09-13T19:06:14.289Z,1.20
2022-09-13T19:09:01.033Z,1.00
2022-09-13T19:11:48.743Z,1.10
2022-09-13T19:14:34.421Z,1.10
2022-09-13T19:17:19.996Z,1.10
2022-09-13T19:20:06.157Z,1.05
2022-09-13T19:22:52.269Z,1.00
2022-09-13T19:25:37.820Z,1.00
2022-09-13T19:28:23.274Z,1.00
2022-09-13T19:31:10.795Z,1.00
2022-09-13T19:33:57.115Z,1.10
2022-09-13T19:36:44.258Z,1.00
2022-09-13T19:39:30.683Z,1.00
2022-09-13T19:42:16.007Z,1.10
2022-09-13T19:45:01.548Z,1.30
2022-09-13T19:48:37.055Z,1.05
2022-09-13T19:50:53.227Z,1.20
2022-09-13T19:53:55.900Z,1.02
2022-09-13T19:56:43.831Z,1.92
2022-09-13T19:59:31.423Z,1.40
2022-09-13T20:02:16.764Z,1.33
2022-09-13T20:05:02.656Z,1.20
2022-09-13T20:07:47.744Z,1.23
2022-09-13T20:10:33.256Z,1.42
2022-09-13T20:13:19.525Z,1.27
2022-09-13T20:16:24.160Z,1.00
2022-09-13T20:19:39.443Z,1.00
2022-09-13T20:22:24.265Z,1.20
2022-09-13T20:25:10.391Z,1.02
2022-09-13T20:27:55.742Z,1.10
2022-09-13T20:30:42.253Z,1.20
2022-09-13T20:33:27.777Z,1.15
2022-09-13T20:36:15.697Z,1.25
2022-09-13T20:39:03.610Z,1.50
2022-09-13T20:41:50.065Z,2.05
2022-09-13T20:44:35.612Z,1.30
2022-09-13T20:47:21.087Z,1.40
2022-09-13T20:50:07.004Z,1.30
2022-09-13T20:52:52.740Z,1.40
2022-09-13T20:55:38.044Z,1.35
2022-09-13T20:58:24.872Z,1.42
2022-09-13T21:01:20.160Z,1.17
2022-09-13T21:04:05.848Z,1.20
2022-09-13T21:07:14.309Z,1.30
2022-09-13T21:10:01.008Z,1.60
2022-09-13T21:12:51.149Z,1.20
2022-09-13T21:15:38.573Z,1.27
2022-09-13T21:18:23.782Z,1.77
2022-09-13T21:21:32.377Z,1.50
2022-09-13T21:24:17.671Z,1.50
2022-09-13T21:27:03.622Z,1.48
2022-09-13T21:29:49.111Z,1.20
2022-09-13T21:32:34.818Z,1.48
2022-09-13T21:35:20.684Z,1.40
2022-09-13T21:38:06.072Z,1.55
2022-09-13T21:41:03.539Z,1.50
2022-09-13T21:43:49.538Z,1.40
2022-09-13T21:46:36.870Z,1.55
2022-09-13T21:49:22.287Z,1.48
2022-09-13T21:52:08.090Z,1.58
2022-09-13T21:54:53.474Z,1.40
2022-09-13T21:57:38.904Z,1.52
2022-09-13T22:00:24.488Z,1.40
2022-09-13T22:03:09.898Z,1.50
2022-09-13T22:05:56.712Z,1.60
2022-09-13T22:08:52.386Z,1.48
2022-09-13T22:11:40.381Z,1.50
2022-09-13T22:14:26.564Z,1.60
2022-09-13T22:17:11.831Z,1.45
2022-09-13T22:19:57.246Z,1.50
2022-09-13T22:22:42.695Z,1.52
2022-09-13T22:25:28.363Z,1.60
2022-09-13T22:28:13.516Z,1.75
2022-09-13T22:31:11.923Z,1.60
2022-09-13T22:33:59.677Z,1.60
2022-09-13T22:36:45.252Z,1.60
2022-09-13T22:39:30.680Z,1.73
2022-09-13T22:42:16.201Z,1.50
2022-09-13T22:45:01.244Z,1.30
2022-09-13T22:47:46.782Z,1.98
2022-09-13T22:50:32.215Z,1.63
2022-09-13T22:53:17.936Z,1.50
2022-09-13T22:56:04.621Z,1.40
2022-09-13T22:58:54.544Z,1.42
2022-09-13T23:01:40.018Z,1.48
2022-09-13T23:04:25.403Z,1.73
2022-09-13T23:07:10.922Z,1.50
2022-09-13T23:09:56.569Z,1.58
2022-09-13T23:12:41.893Z,1.40
2022-09-13T23:15:27.517Z,1.75
2022-09-13T23:18:14.156Z,1.73
2022-09-13T23:20:59.746Z,1.50
2022-09-13T23:23:45.009Z,1.60
2022-09-13T23:26:31.329Z,1.50
2022-09-13T23:29:19.287Z,1.73
2022-09-13T23:32:05.265Z,1.50
2022-09-13T23:34:50.612Z,1.65
2022-09-13T23:37:36.528Z,1.90
2022-09-13T23:40:23.303Z,1.80
2022-09-13T23:43:08.700Z,1.50
2022-09-13T23:45:54.686Z,1.98
2022-09-13T23:48:44.336Z,1.60
2022-09-13T23:51:29.685Z,1.70
2022-09-13T23:54:15.209Z,1.73
2022-09-13T23:57:00.386Z,1.88
2022-09-13T23:59:45.875Z,2.00
